createdAt,value
2022-11-26T00:02:41.958Z,13.57
2022-11-26T00:05:47.624Z,13.87
2022-11-26T00:08:50.477Z,14.47
2022-11-26T00:11:53.201Z,16.70
2022-11-26T00:14:57.573Z,17.20
2022-11-26T00:18:00.968Z,19.80
2022-11-26T00:21:03.855Z,22.90
2022-11-26T00:24:13.083Z,21.97
2022-11-26T00:27:16.717Z,19.33
2022-11-26T00:30:23.782Z,20.03
2022-11-26T00:33:27.388Z,20.73
2022-11-26T00:36:32.598Z,19.27
2022-11-26T00:39:35.328Z,19.00
2022-11-26T00:42:38.944Z,20.37
2022-11-26T00:45:43.704Z,17.43
2022-11-26T00:48:46.678Z,16.90
2022-11-26T00:51:49.515Z,18.90
2022-11-26T00:54:52.308Z,17.37
2022-11-26T00:57:55.200Z,15.40
2022-11-26T01:01:00.669Z,16.07
2022-11-26T01:04:03.957Z,16.93
2022-11-26T01:07:06.752Z,15.27
2022-11-26T01:10:17.286Z,16.03
2022-11-26T01:13:20.144Z,16.33
2022-11-26T01:16:26.634Z,15.17
2022-11-26T01:19:29.422Z,15.57
2022-11-26T01:22:32.237Z,16.90
2022-11-26T01:25:34.949Z,15.30
2022-11-26T01:28:37.746Z,15.77
2022-11-26T01:31:41.870Z,16.27
2022-11-26T01:34:44.776Z,19.37
2022-11-26T01:37:47.704Z,25.00
2022-11-26T01:40:56.228Z,21.33
2022-11-26T01:44:00.430Z,44.80
2022-11-26T01:47:20.902Z,41.83
2022-11-26T01:50:52.252Z,104.10
2022-11-26T01:53:59.400Z,18.90
2022-11-26T01:57:11.496Z,13.07
2022-11-26T02:00:15.518Z,9.90
2022-11-26T02:03:21.210Z,9.27
2022-11-26T02:06:29.170Z,8.17
2022-11-26T02:09:32.829Z,6.30
2022-11-26T02:12:35.754Z,6.33
2022-11-26T02:15:49.873Z,7.30
2022-11-26T02:19:08.545Z,6.23
2022-11-26T02:22:27.797Z,4.57
2022-11-26T02:25:47.263Z,6.33
2022-11-26T02:29:04.145Z,5.77
2022-11-26T02:32:11.366Z,5.83
2022-11-26T02:35:20.401Z,5.50
2022-11-26T02:38:25.878Z,5.63
2022-11-26T02:41:33.911Z,5.20
2022-11-26T02:44:43.153Z,5.60
2022-11-26T02:47:50.276Z,5.43
2022-11-26T02:50:57.599Z,6.60
2022-11-26T02:54:01.459Z,6.27
2022-11-26T02:57:08.194Z,5.83
2022-11-26T03:00:11.831Z,8.07
2022-11-26T03:03:24.168Z,5.57
2022-11-26T03:06:31.162Z,5.13
2022-11-26T03:09:41.270Z,5.30
2022-11-26T03:12:44.010Z,5.40
2022-11-26T03:15:46.839Z,5.20
2022-11-26T03:18:50.962Z,4.57
2022-11-26T03:21:53.677Z,4.50
2022-11-26T03:24:56.422Z,3.80
2022-11-26T03:27:59.227Z,3.87
2022-11-26T03:31:02.118Z,4.20
2022-11-26T03:34:06.174Z,4.20
2022-11-26T03:37:08.889Z,4.33
2022-11-26T03:40:12.183Z,3.97
2022-11-26T03:43:14.897Z,4.10
2022-11-26T03:46:17.837Z,3.93
2022-11-26T03:49:22.034Z,3.80
2022-11-26T03:52:24.770Z,3.13
2022-11-26T03:55:27.554Z,3.53
2022-11-26T03:58:31.238Z,4.40
2022-11-26T04:01:34.232Z,3.50
2022-11-26T04:04:38.547Z,3.63
2022-11-26T04:07:41.610Z,3.40
2022-11-26T04:10:44.461Z,3.70
2022-11-26T04:13:47.193Z,3.90
2022-11-26T04:16:50.009Z,3.70
2022-11-26T04:19:54.319Z,4.20
2022-11-26T04:22:57.074Z,3.90
2022-11-26T04:25:59.940Z,4.20
2022-11-26T04:29:03.320Z,5.00
2022-11-26T04:32:06.610Z,5.00
2022-11-26T04:35:11.493Z,4.27
2022-11-26T04:38:14.430Z,4.43
2022-11-26T04:41:17.215Z,5.17
2022-11-26T04:44:19.927Z,4.83
2022-11-26T04:47:22.694Z,4.17
2022-11-26T04:50:26.832Z,4.03
2022-11-26T04:53:29.552Z,4.23
2022-11-26T04:56:32.271Z,3.97
2022-11-26T04:59:35.072Z,3.63
2022-11-26T05:02:37.853Z,3.77
2022-11-26T05:05:42.001Z,3.93
2022-11-26T05:08:44.758Z,4.03
2022-11-26T05:11:47.498Z,3.90
2022-11-26T05:14:50.228Z,3.97
2022-11-26T05:17:52.938Z,4.67
2022-11-26T05:20:57.010Z,4.87
2022-11-26T05:23:59.918Z,4.73
2022-11-26T05:27:03.211Z,5.10
2022-11-26T05:30:07.421Z,5.30
2022-11-26T05:33:10.136Z,5.67
2022-11-26T05:36:14.195Z,5.53
2022-11-26T05:39:17.088Z,5.57
2022-11-26T05:42:19.945Z,5.33
2022-11-26T05:45:23.251Z,5.67
2022-11-26T05:48:26.050Z,6.47
2022-11-26T05:51:30.118Z,6.00
2022-11-26T05:54:32.860Z,6.80
2022-11-26T05:57:35.638Z,6.10
2022-11-26T06:00:38.360Z,6.33
2022-11-26T06:03:41.368Z,8.30
2022-11-26T06:06:45.471Z,5.80
2022-11-26T06:09:48.230Z,6.30
2022-11-26T06:12:50.945Z,6.30
2022-11-26T06:15:53.841Z,6.27
2022-11-26T06:18:57.418Z,6.87
2022-11-26T06:22:01.519Z,6.77
2022-11-26T06:25:04.428Z,6.23
2022-11-26T06:28:07.185Z,7.73
2022-11-26T06:31:11.010Z,7.23
2022-11-26T06:34:15.396Z,10.80
2022-11-26T06:37:19.550Z,10.70
2022-11-26T06:40:22.317Z,9.23
2022-11-26T06:43:25.019Z,9.10
2022-11-26T06:46:27.848Z,8.57
2022-11-26T06:49:30.747Z,8.63
2022-11-26T06:52:34.948Z,8.47
2022-11-26T06:55:38.182Z,8.87
2022-11-26T06:58:41.022Z,10.90
2022-11-26T07:01:43.837Z,9.40
2022-11-26T07:04:46.611Z,10.47
2022-11-26T07:07:50.813Z,12.00
2022-11-26T07:10:53.789Z,14.47
2022-11-26T07:13:56.567Z,16.63
2022-11-26T07:16:59.345Z,14.43
2022-11-26T07:20:02.222Z,8.60
2022-11-26T07:23:06.398Z,8.73
2022-11-26T07:26:10.674Z,11.47
2022-11-26T07:29:14.551Z,10.10
2022-11-26T07:32:17.288Z,9.93
2022-11-26T07:35:20.079Z,10.70
2022-11-26T07:38:24.144Z,10.43
2022-11-26T07:41:28.138Z,11.70
2022-11-26T07:44:30.881Z,12.27
2022-11-26T07:47:33.615Z,11.40
2022-11-26T07:50:36.343Z,10.40
2022-11-26T07:53:40.463Z,11.40
2022-11-26T07:56:43.158Z,11.67
2022-11-26T07:59:45.881Z,14.07
2022-11-26T08:02:48.593Z,18.10
2022-11-26T08:05:51.333Z,15.63
2022-11-26T08:08:55.676Z,16.17
2022-11-26T08:11:58.465Z,15.97
2022-11-26T08:15:01.933Z,13.60
2022-11-26T08:18:04.898Z,13.30
2022-11-26T08:21:08.396Z,14.10
2022-11-26T08:24:15.760Z,12.93
2022-11-26T08:27:18.520Z,12.87
2022-11-26T08:30:21.442Z,12.10
2022-11-26T08:33:24.471Z,13.43
2022-11-26T08:36:27.941Z,18.40
2022-11-26T08:39:32.032Z,24.50
2022-11-26T08:42:34.886Z,18.33
2022-11-26T08:45:37.600Z,18.73
2022-11-26T08:48:40.657Z,15.60
2022-11-26T08:51:43.711Z,15.93
2022-11-26T08:54:48.155Z,13.80
2022-11-26T08:57:51.200Z,12.77
2022-11-26T09:00:54.065Z,12.07
2022-11-26T09:03:59.230Z,8.43
2022-11-26T09:07:02.287Z,8.37
2022-11-26T09:10:07.937Z,7.43
2022-11-26T09:13:10.690Z,6.27
2022-11-26T09:16:13.445Z,7.40
2022-11-26T09:19:17.670Z,8.47
2022-11-26T09:22:20.370Z,5.83
2022-11-26T09:25:24.460Z,8.90
2022-11-26T09:28:35.066Z,8.23
2022-11-26T09:31:49.707Z,7.53
2022-11-26T09:35:00.494Z,7.20
2022-11-26T09:38:03.693Z,7.70
2022-11-26T09:41:16.661Z,8.43
2022-11-26T09:44:34.974Z,7.20
2022-11-26T09:47:41.692Z,7.43
2022-11-26T09:50:46.724Z,9.10
2022-11-26T09:53:52.561Z,9.70
2022-11-26T09:57:03.394Z,8.47
2022-11-26T10:00:16.881Z,7.63
2022-11-26T10:03:21.026Z,9.67
2022-11-26T10:06:37.460Z,7.73
2022-11-26T10:09:55.642Z,13.00
2022-11-26T10:13:19.148Z,9.77
2022-11-26T10:16:28.724Z,12.00
2022-11-26T10:19:41.040Z,10.90
2022-11-26T10:22:56.760Z,9.07
2022-11-26T10:26:06.754Z,8.77
2022-11-26T10:29:21.714Z,10.60
2022-11-26T10:32:27.490Z,9.97
2022-11-26T10:35:31.423Z,10.63
2022-11-26T10:38:34.149Z,10.33
2022-11-26T10:41:38.809Z,9.80
2022-11-26T10:44:42.654Z,10.13
2022-11-26T10:47:47.002Z,12.87
2022-11-26T10:51:02.238Z,12.37
2022-11-26T10:54:07.532Z,14.37
2022-11-26T10:57:15.334Z,14.03
2022-11-26T11:00:39.233Z,18.00
2022-11-26T11:04:08.794Z,9.47
2022-11-26T11:07:29.539Z,11.57
2022-11-26T11:10:32.292Z,12.60
2022-11-26T11:13:42.494Z,11.47
2022-11-26T11:16:46.563Z,11.37
2022-11-26T11:19:50.759Z,10.03
2022-11-26T11:22:59.958Z,10.47
2022-11-26T11:26:05.723Z,10.87
2022-11-26T11:29:25.345Z,10.50
2022-11-26T11:32:36.086Z,11.60
2022-11-26T11:35:40.364Z,12.03
2022-11-26T11:38:49.265Z,11.33
2022-11-26T11:41:52.382Z,12.27
2022-11-26T11:44:57.254Z,11.57
2022-11-26T11:48:05.661Z,14.87
2022-11-26T11:51:18.955Z,12.03
2022-11-26T11:54:26.923Z,12.00
2022-11-26T11:58:03.371Z,12.50
2022-11-26T12:01:15.195Z,14.67
2022-11-26T12:04:31.995Z,10.73
2022-11-26T12:07:41.989Z,11.10
2022-11-26T12:10:54.115Z,11.10
2022-11-26T12:14:02.225Z,10.57
2022-11-26T12:17:09.290Z,11.83
2022-11-26T12:20:21.775Z,9.60
2022-11-26T12:23:31.013Z,10.53
2022-11-26T12:26:38.133Z,10.00
2022-11-26T12:29:45.214Z,9.90
2022-11-26T12:32:52.176Z,7.43
2022-11-26T12:35:59.835Z,7.30
2022-11-26T12:39:17.799Z,7.03
2022-11-26T12:42:26.808Z,8.40
2022-11-26T12:45:42.555Z,7.57
2022-11-26T12:48:52.408Z,6.57
2022-11-26T12:52:12.239Z,5.27
2022-11-26T12:55:20.596Z,9.07
2022-11-26T12:58:28.289Z,9.60
2022-11-26T13:01:33.091Z,9.10
2022-11-26T13:04:38.209Z,9.83
2022-11-26T13:07:59.354Z,8.53
2022-11-26T13:11:17.025Z,8.03
2022-11-26T13:14:28.837Z,7.57
2022-11-26T13:17:44.561Z,6.60
2022-11-26T13:21:00.426Z,7.33
2022-11-26T13:24:23.768Z,5.40
2022-11-26T13:27:49.545Z,5.33
2022-11-26T13:31:07.138Z,6.30
2022-11-26T13:34:27.479Z,5.87
2022-11-26T13:38:00.723Z,5.60
2022-11-26T13:41:22.611Z,4.80
2022-11-26T13:44:52.862Z,3.63
2022-11-26T13:48:00.738Z,4.13
2022-11-26T13:51:10.588Z,3.93
2022-11-26T13:54:17.647Z,3.10
2022-11-26T13:57:24.485Z,3.83
2022-11-26T14:00:31.472Z,3.50
2022-11-26T14:03:52.169Z,2.97
2022-11-26T14:07:20.238Z,3.13
2022-11-26T14:10:44.321Z,4.23
2022-11-26T14:14:24.581Z,3.80
2022-11-26T14:17:34.912Z,3.73
2022-11-26T14:21:12.930Z,3.77
2022-11-26T14:24:55.193Z,4.00
2022-11-26T14:28:02.338Z,3.90
2022-11-26T14:31:13.258Z,4.13
2022-11-26T14:34:23.802Z,4.73
2022-11-26T14:37:28.779Z,4.17
2022-11-26T14:40:33.592Z,3.50
2022-11-26T14:43:37.681Z,3.40
2022-11-26T14:46:41.841Z,3.40
2022-11-26T14:49:50.318Z,3.17
2022-11-26T14:52:57.359Z,3.30
2022-11-26T14:56:00.936Z,3.27
2022-11-26T14:59:07.320Z,2.87
2022-11-26T15:02:22.014Z,5.77
2022-11-26T15:05:27.664Z,5.00
2022-11-26T15:08:30.687Z,5.00
2022-11-26T15:11:34.987Z,5.50
2022-11-26T15:14:44.134Z,4.03
2022-11-26T15:17:52.959Z,5.33
2022-11-26T15:20:56.600Z,5.03
2022-11-26T15:24:03.184Z,13.33
2022-11-26T15:27:06.100Z,12.50
2022-11-26T15:30:20.720Z,8.87
2022-11-26T15:33:24.146Z,5.83
2022-11-26T15:36:26.934Z,10.80
2022-11-26T15:39:31.727Z,7.17
2022-11-26T15:42:35.352Z,6.30
2022-11-26T15:45:41.561Z,7.03
2022-11-26T15:48:52.902Z,7.63
2022-11-26T15:51:59.635Z,5.63
2022-11-26T15:55:15.654Z,5.27
2022-11-26T15:58:23.368Z,5.73
2022-11-26T16:01:29.998Z,5.27
2022-11-26T16:04:40.913Z,7.90
2022-11-26T16:07:57.538Z,6.80
2022-11-26T16:11:07.930Z,6.83
2022-11-26T16:14:24.816Z,6.27
2022-11-26T16:17:28.933Z,7.37
2022-11-26T16:20:31.701Z,14.40
2022-11-26T16:23:34.822Z,9.27
2022-11-26T16:26:57.502Z,15.60
2022-11-26T16:30:03.735Z,14.97
2022-11-26T16:33:08.406Z,15.73
2022-11-26T16:36:27.501Z,12.87
2022-11-26T16:39:36.078Z,9.00
2022-11-26T16:42:42.034Z,8.20
2022-11-26T16:45:45.141Z,8.10
2022-11-26T16:48:49.559Z,8.53
2022-11-26T16:51:52.311Z,7.27
2022-11-26T16:55:23.570Z,9.73
2022-11-26T16:58:28.830Z,6.87
2022-11-26T17:01:31.667Z,6.87
2022-11-26T17:04:36.012Z,7.77
2022-11-26T17:07:42.865Z,32.57
2022-11-26T17:10:48.143Z,19.50
2022-11-26T17:13:51.168Z,11.17
2022-11-26T17:16:53.970Z,14.47
2022-11-26T17:19:58.138Z,28.43
2022-11-26T17:23:00.957Z,13.63
2022-11-26T17:26:08.420Z,30.50
2022-11-26T17:29:13.948Z,18.13
2022-11-26T17:32:18.994Z,8.77
2022-11-26T17:35:23.126Z,8.17
2022-11-26T17:38:25.983Z,8.67
2022-11-26T17:41:28.762Z,7.07
2022-11-26T17:44:31.471Z,8.77
2022-11-26T17:47:34.249Z,7.33
2022-11-26T17:50:38.339Z,8.27
2022-11-26T17:53:41.377Z,8.27
2022-11-26T17:56:44.130Z,14.30
2022-11-26T17:59:46.972Z,11.47
2022-11-26T18:02:50.126Z,9.70
2022-11-26T18:05:54.361Z,8.87
2022-11-26T18:08:57.065Z,8.27
2022-11-26T18:12:00.798Z,15.37
2022-11-26T18:15:04.052Z,9.43
2022-11-26T18:18:07.521Z,9.43
2022-11-26T18:21:13.031Z,10.87
2022-11-26T18:24:15.777Z,10.20
2022-11-26T18:27:18.706Z,10.13
2022-11-26T18:30:21.842Z,8.17
2022-11-26T18:33:24.546Z,8.60
2022-11-26T18:36:29.331Z,8.77
2022-11-26T18:39:32.064Z,10.43
2022-11-26T18:42:37.539Z,8.37
2022-11-26T18:45:42.864Z,9.20
2022-11-26T18:48:47.547Z,9.43
2022-11-26T18:51:51.786Z,9.83
2022-11-26T18:54:54.498Z,10.03
2022-11-26T18:57:57.303Z,8.77
2022-11-26T19:01:00.162Z,9.73
2022-11-26T19:04:03.959Z,10.80
2022-11-26T19:07:08.045Z,11.57
2022-11-26T19:10:12.236Z,12.47
2022-11-26T19:13:15.241Z,11.37
2022-11-26T19:16:20.184Z,9.17
2022-11-26T19:19:23.069Z,10.83
2022-11-26T19:22:27.250Z,9.40
2022-11-26T19:25:30.604Z,9.57
2022-11-26T19:28:33.753Z,10.70
2022-11-26T19:31:39.000Z,10.97
2022-11-26T19:34:41.821Z,11.57
2022-11-26T19:37:46.017Z,12.60
2022-11-26T19:40:48.721Z,13.57
2022-11-26T19:43:51.560Z,13.70
2022-11-26T19:46:54.341Z,17.03
2022-11-26T19:49:57.057Z,13.83
2022-11-26T19:53:02.178Z,12.40
2022-11-26T19:56:06.865Z,10.50
2022-11-26T19:59:09.764Z,11.40
2022-11-26T20:02:12.652Z,11.10
2022-11-26T20:05:16.496Z,11.70
2022-11-26T20:08:21.591Z,14.83
2022-11-26T20:11:24.856Z,13.93
2022-11-26T20:14:27.559Z,15.27
2022-11-26T20:17:30.856Z,18.37
2022-11-26T20:20:33.705Z,18.33
2022-11-26T20:23:38.280Z,13.30
2022-11-26T20:26:42.786Z,11.23
2022-11-26T20:29:45.592Z,11.80
2022-11-26T20:32:49.094Z,15.90
2022-11-26T20:35:51.870Z,34.17
2022-11-26T20:38:57.313Z,34.57
2022-11-26T20:42:00.043Z,23.47
2022-11-26T20:45:04.905Z,22.20
2022-11-26T20:48:07.727Z,18.27
2022-11-26T20:51:13.528Z,19.67
2022-11-26T20:54:17.681Z,13.10
2022-11-26T20:57:21.503Z,13.00
2022-11-26T21:00:27.580Z,14.50
2022-11-26T21:03:31.030Z,15.50
2022-11-26T21:06:35.919Z,15.63
2022-11-26T21:09:40.230Z,13.53
2022-11-26T21:12:43.668Z,13.33
2022-11-26T21:15:47.896Z,13.27
2022-11-26T21:18:50.599Z,12.33
2022-11-26T21:21:53.349Z,14.03
2022-11-26T21:24:57.434Z,12.93
2022-11-26T21:28:00.134Z,12.50
2022-11-26T21:31:08.243Z,11.60
2022-11-26T21:34:12.145Z,11.03
2022-11-26T21:37:14.917Z,11.17
2022-11-26T21:40:19.254Z,11.60
2022-11-26T21:43:21.959Z,12.10
2022-11-26T21:46:26.920Z,10.07
2022-11-26T21:49:30.922Z,10.67
2022-11-26T21:52:33.722Z,10.83
2022-11-26T21:55:37.798Z,10.20
2022-11-26T21:58:40.920Z,11.37
2022-11-26T22:01:44.380Z,10.30
2022-11-26T22:04:47.283Z,10.17
2022-11-26T22:07:50.720Z,10.33
2022-11-26T22:10:54.906Z,9.87
2022-11-26T22:13:57.750Z,10.77
2022-11-26T22:17:00.455Z,10.30
2022-11-26T22:20:05.930Z,10.40
2022-11-26T22:23:08.620Z,10.47
2022-11-26T22:26:12.948Z,11.30
2022-11-26T22:29:17.142Z,11.17
2022-11-26T22:32:20.100Z,11.43
2022-11-26T22:35:22.793Z,10.27
2022-11-26T22:38:25.515Z,9.60
2022-11-26T22:41:29.629Z,9.83
2022-11-26T22:44:33.962Z,9.87
2022-11-26T22:47:36.885Z,7.97
2022-11-26T22:50:39.886Z,9.10
2022-11-26T22:53:43.522Z,9.07
2022-11-26T22:56:47.721Z,10.60
2022-11-26T22:59:50.417Z,11.03
2022-11-26T23:02:53.206Z,11.47
2022-11-26T23:05:56.772Z,12.03
2022-11-26T23:09:00.493Z,10.13
2022-11-26T23:12:05.388Z,10.53
2022-11-26T23:15:09.347Z,11.70
2022-11-26T23:18:13.666Z,11.90
2022-11-26T23:21:18.805Z,10.53
2022-11-26T23:24:21.933Z,9.90
2022-11-26T23:27:26.007Z,9.73
2022-11-26T23:30:29.610Z,9.80
2022-11-26T23:33:32.381Z,11.80
2022-11-26T23:36:36.680Z,10.53
2022-11-26T23:39:39.627Z,10.37
2022-11-26T23:42:43.889Z,9.70
2022-11-26T23:45:46.682Z,9.33
2022-11-26T23:48:50.428Z,12.03
2022-11-26T23:51:53.310Z,12.10
2022-11-26T23:54:56.039Z,11.57
2022-11-26T23:58:00.119Z,10.97
